Time;durP1;ratioP1;P1;durP2;ratioP2;P2;SDS_P1;SDS_P2;PMS_P1;PMS_P2;Temp;Humidity;BMP_temperature;BMP_pressure;BME280_temperature;BME280_humidity;BME280_pressure;Samples;Min_cycle;Max_cycle;Signal;HPM_P1;HPM_P2
2023/07/25 00:00:29;;;;;;;0.00;0.00;;;;;;;;;;1751349;28;20619;-78
2023/07/25 00:01:21;;;;;;;0.00;0.00;;;;;;;;;;1753415;28;20221;-78
2023/07/25 00:02:12;;;;;;;0.00;0.00;;;;;;;;;;1752012;28;20224;-78
2023/07/25 00:03:03;;;;;;;0.00;0.00;;;;;;;;;;1753154;28;20284;-78
2023/07/25 00:03:55;;;;;;;0.00;0.00;;;;;;;;;;1753908;28;20384;-78
2023/07/25 00:04:46;;;;;;;0.00;0.00;;;;;;;;;;1753253;28;20752;-79
2023/07/25 00:05:37;;;;;;;0.00;0.00;;;;;;;;;;1751957;28;20327;-79
2023/07/25 00:06:29;;;;;;;0.00;0.00;;;;;;;;;;1751926;28;20202;-79
2023/07/25 00:07:20;;;;;;;0.00;0.00;;;;;;;;;;1753597;28;20240;-79
2023/07/25 00:08:11;;;;;;;0.00;0.00;;;;;;;;;;1752333;28;20288;-79
2023/07/25 00:09:03;;;;;;;0.00;0.00;;;;;;;;;;1753084;28;20619;-79
2023/07/25 00:09:54;;;;;;;0.00;0.00;;;;;;;;;;1752301;28;20312;-79
2023/07/25 00:10:45;;;;;;;0.00;0.00;;;;;;;;;;1750892;28;20321;-78
2023/07/25 00:11:37;;;;;;;0.00;0.00;;;;;;;;;;1753291;28;20202;-78
2023/07/25 00:12:28;;;;;;;0.00;0.00;;;;;;;;;;1752450;28;20301;-78
2023/07/25 00:13:19;;;;;;;0.00;0.00;;;;;;;;;;1753322;28;20197;-78
2023/07/25 00:14:13;;;;;;;0.00;0.00;;;;;;;;;;1752727;28;20262;-78
2023/07/25 00:15:05;;;;;;;0.00;0.00;;;;;;;;;;1753901;28;20237;-78
2023/07/25 00:15:56;;;;;;;0.00;0.00;;;;;;;;;;1750993;28;20504;-78
2023/07/25 00:16:48;;;;;;;0.00;0.00;;;;;;;;;;1750433;28;20239;-78
2023/07/25 00:17:39;;;;;;;0.00;0.00;;;;;;;;;;1753558;28;20317;-78
2023/07/25 00:18:30;;;;;;;0.00;0.00;;;;;;;;;;1753903;28;20197;-78
2023/07/25 00:19:22;;;;;;;0.00;0.00;;;;;;;;;;1753201;28;20201;-78
2023/07/25 00:20:13;;;;;;;0.00;0.00;;;;;;;;;;1752526;28;20225;-78
2023/07/25 00:21:05;;;;;;;0.00;0.00;;;;;;;;;;1750599;28;20230;-78
2023/07/25 00:21:56;;;;;;;0.00;0.00;;;;;;;;;;1752989;28;20687;-79
2023/07/25 00:22:48;;;;;;;0.00;0.00;;;;;;;;;;1751143;28;20202;-78
2023/07/25 00:23:39;;;;;;;0.00;0.00;;;;;;;;;;1753232;28;20228;-78
2023/07/25 00:24:31;;;;;;;0.00;0.00;;;;;;;;;;1752437;28;20690;-78
2023/07/25 00:25:22;;;;;;;0.00;0.00;;;;;;;;;;1751417;28;20297;-78
2023/07/25 00:26:14;;;;;;;0.00;0.00;;;;;;;;;;1752571;28;20345;-78
2023/07/25 00:27:05;;;;;;;0.00;0.00;;;;;;;;;;1753162;28;20327;-78
2023/07/25 00:27:56;;;;;;;0.00;0.00;;;;;;;;;;1751166;28;20292;-78
2023/07/25 00:28:49;;;;;;;0.00;0.00;;;;;;;;;;1752848;28;20610;-78
2023/07/25 00:29:41;;;;;;;0.00;0.00;;;;;;;;;;1751551;28;20324;-78
2023/07/25 00:30:32;;;;;;;0.00;0.00;;;;;;;;;;1751547;28;20293;-78
2023/07/25 00:31:24;;;;;;;0.00;0.00;;;;;;;;;;1752468;28;20201;-78
2023/07/25 00:32:16;;;;;;;0.00;0.00;;;;;;;;;;1754127;28;20232;-78
2023/07/25 00:33:07;;;;;;;0.00;0.00;;;;;;;;;;1752413;28;20267;-78
2023/07/25 00:33:59;;;;;;;0.00;0.00;;;;;;;;;;1753553;28;20232;-78
2023/07/25 00:34:50;;;;;;;0.00;0.00;;;;;;;;;;1752668;28;20305;-78
2023/07/25 00:35:41;;;;;;;0.00;0.00;;;;;;;;;;1751678;28;20233;-78
2023/07/25 00:36:34;;;;;;;0.00;0.00;;;;;;;;;;1752984;28;20265;-78
2023/07/25 00:37:25;;;;;;;0.00;0.00;;;;;;;;;;1754157;28;20228;-78
2023/07/25 00:38:16;;;;;;;0.00;0.00;;;;;;;;;;1752483;28;20236;-78
2023/07/25 00:39:08;;;;;;;0.00;0.00;;;;;;;;;;1753604;28;20292;-78
2023/07/25 00:39:59;;;;;;;0.00;0.00;;;;;;;;;;1752523;28;20306;-78
2023/07/25 00:40:50;;;;;;;0.00;0.00;;;;;;;;;;1751076;28;20221;-78
2023/07/25 00:41:42;;;;;;;0.00;0.00;;;;;;;;;;1753008;28;20892;-78
2023/07/25 00:42:33;;;;;;;0.00;0.00;;;;;;;;;;1752558;28;20203;-78
2023/07/25 00:43:25;;;;;;;0.00;0.00;;;;;;;;;;1753522;28;20599;-78
2023/07/25 00:44:16;;;;;;;0.00;0.00;;;;;;;;;;1753015;28;20745;-78
2023/07/25 00:45:10;;;;;;;0.00;0.00;;;;;;;;;;1753467;28;20226;-78
2023/07/25 00:46:01;;;;;;;0.00;0.00;;;;;;;;;;1744146;28;20357;-78
2023/07/25 00:46:53;;;;;;;0.00;0.00;;;;;;;;;;1746600;28;20285;-78
2023/07/25 00:47:44;;;;;;;0.00;0.00;;;;;;;;;;1746163;28;20253;-78
2023/07/25 00:48:36;;;;;;;0.00;0.00;;;;;;;;;;1746265;28;20268;-78
2023/07/25 00:49:28;;;;;;;0.00;0.00;;;;;;;;;;1746186;28;20237;-78
2023/07/25 00:50:19;;;;;;;0.00;0.00;;;;;;;;;;1744793;28;20210;-78
2023/07/25 00:51:11;;;;;;;0.00;0.00;;;;;;;;;;1746598;28;20225;-78
2023/07/25 00:52:03;;;;;;;0.00;0.00;;;;;;;;;;1747035;28;20233;-78
2023/07/25 00:52:57;;;;;;;0.00;0.00;;;;;;;;;;1746401;28;20245;-78
2023/07/25 00:53:49;;;;;;;0.00;0.00;;;;;;;;;;1747142;28;20524;-78
2023/07/25 00:54:45;;;;;;;0.00;0.00;;;;;;;;;;1746255;28;20696;-78
2023/07/25 00:55:37;;;;;;;0.00;0.00;;;;;;;;;;1739289;28;20603;-78
2023/07/25 00:56:28;;;;;;;0.00;0.00;;;;;;;;;;1746586;28;20214;-78
2023/07/25 00:57:21;;;;;;;0.00;0.00;;;;;;;;;;1746729;28;20206;-78
2023/07/25 00:58:12;;;;;;;0.00;0.00;;;;;;;;;;1746756;28;20205;-78
2023/07/25 00:59:04;;;;;;;0.00;0.00;;;;;;;;;;1746364;28;20213;-78
2023/07/25 00:59:55;;;;;;;0.00;0.00;;;;;;;;;;1746369;28;20285;-78
2023/07/25 01:00:47;;;;;;;0.00;0.00;;;;;;;;;;1743750;28;20258;-78
2023/07/25 01:01:39;;;;;;;0.00;0.00;;;;;;;;;;1746332;28;20217;-78
2023/07/25 01:02:30;;;;;;;0.00;0.00;;;;;;;;;;1745532;28;20259;-79
2023/07/25 01:03:22;;;;;;;0.00;0.00;;;;;;;;;;1749091;28;20202;-79
2023/07/25 01:04:13;;;;;;;0.00;0.00;;;;;;;;;;1746520;28;20678;-79
2023/07/25 01:05:04;;;;;;;0.00;0.00;;;;;;;;;;1748353;28;20289;-79
2023/07/25 01:05:58;;;;;;;0.00;0.00;;;;;;;;;;1745082;28;20214;-80
2023/07/25 01:06:49;;;;;;;0.00;0.00;;;;;;;;;;1750792;28;20325;-80
2023/07/25 01:07:41;;;;;;;0.00;0.00;;;;;;;;;;1752407;28;20637;-79
2023/07/25 01:08:33;;;;;;;0.00;0.00;;;;;;;;;;1753902;28;20252;-79
2023/07/25 01:09:40;;;;;;;0.00;0.00;;;;;;;;;;1751656;28;20237;-80
2023/07/25 01:10:32;;;;;;;0.00;0.00;;;;;;;;;;1745720;28;20210;-79
2023/07/25 01:11:25;;;;;;;0.00;0.00;;;;;;;;;;1746062;28;20206;-80
2023/07/25 01:12:16;;;;;;;0.00;0.00;;;;;;;;;;1746453;28;20244;-80
2023/07/25 01:13:08;;;;;;;0.00;0.00;;;;;;;;;;1745971;28;20497;-80
2023/07/25 01:13:59;;;;;;;0.00;0.00;;;;;;;;;;1746654;28;20233;-80
2023/07/25 01:14:50;;;;;;;0.00;0.00;;;;;;;;;;1745673;28;20202;-79
2023/07/25 01:15:42;;;;;;;0.00;0.00;;;;;;;;;;1744923;28;20295;-80
2023/07/25 01:16:35;;;;;;;0.00;0.00;;;;;;;;;;1750225;28;20229;-78
2023/07/25 01:17:28;;;;;;;0.03;0.03;;;;;;;;;;1746391;28;20230;-78
2023/07/25 01:18:19;;;;;;;0.00;0.00;;;;;;;;;;1746406;28;20229;-78
2023/07/25 01:19:11;;;;;;;0.00;0.00;;;;;;;;;;1745921;28;20203;-78
2023/07/25 01:20:04;;;;;;;0.00;0.00;;;;;;;;;;1746017;28;20241;-78
2023/07/25 01:20:56;;;;;;;0.00;0.00;;;;;;;;;;1743404;28;20221;-78
2023/07/25 01:21:47;;;;;;;0.00;0.00;;;;;;;;;;1745474;28;20548;-78
2023/07/25 01:22:39;;;;;;;0.00;0.00;;;;;;;;;;1745780;28;20206;-80
2023/07/25 01:23:31;;;;;;;0.00;0.00;;;;;;;;;;1746847;28;20230;-80
2023/07/25 01:24:23;;;;;;;0.00;0.00;;;;;;;;;;1742157;28;20233;-80
2023/07/25 01:25:15;;;;;;;0.00;0.00;;;;;;;;;;1743242;28;20236;-80
2023/07/25 01:26:07;;;;;;;0.00;0.00;;;;;;;;;;1746108;28;20268;-80
2023/07/25 01:26:58;;;;;;;0.00;0.00;;;;;;;;;;1746404;28;20264;-81
2023/07/25 01:27:50;;;;;;;0.00;0.00;;;;;;;;;;1745975;28;20209;-81
2023/07/25 01:28:41;;;;;;;0.00;0.00;;;;;;;;;;1746263;28;20663;-81
2023/07/25 01:29:32;;;;;;;0.00;0.00;;;;;;;;;;1745565;28;20206;-81
2023/07/25 01:30:24;;;;;;;0.00;0.00;;;;;;;;;;1746002;28;20186;-81
2023/07/25 01:31:15;;;;;;;0.00;0.00;;;;;;;;;;1753074;28;20243;-81
2023/07/25 01:32:06;;;;;;;0.00;0.00;;;;;;;;;;1752507;28;20228;-79
2023/07/25 01:32:58;;;;;;;0.00;0.00;;;;;;;;;;1752390;28;20593;-80
2023/07/25 01:33:49;;;;;;;0.00;0.00;;;;;;;;;;1753062;28;20845;-80
2023/07/25 01:34:42;;;;;;;0.00;0.00;;;;;;;;;;1752702;28;20236;-80
2023/07/25 01:35:33;;;;;;;0.00;0.00;;;;;;;;;;1742058;28;20269;-80
2023/07/25 01:36:25;;;;;;;0.00;0.00;;;;;;;;;;1746043;28;20257;-80
2023/07/25 01:37:16;;;;;;;0.00;0.00;;;;;;;;;;1747007;28;20684;-80
2023/07/25 01:38:07;;;;;;;0.00;0.00;;;;;;;;;;1746713;28;20302;-79
2023/07/25 01:38:59;;;;;;;0.00;0.00;;;;;;;;;;1748777;28;20239;-79
2023/07/25 01:39:51;;;;;;;0.00;0.00;;;;;;;;;;1748177;28;20313;-79
2023/07/25 01:40:43;;;;;;;0.00;0.00;;;;;;;;;;1745472;28;20237;-79
2023/07/25 01:41:34;;;;;;;0.00;0.00;;;;;;;;;;1749564;28;20252;-79
2023/07/25 01:42:25;;;;;;;0.00;0.00;;;;;;;;;;1750497;28;20205;-79
2023/07/25 01:43:17;;;;;;;0.00;0.00;;;;;;;;;;1751541;28;20205;-79
2023/07/25 01:44:08;;;;;;;0.00;0.00;;;;;;;;;;1751121;28;20315;-80
2023/07/25 01:45:00;;;;;;;0.00;0.00;;;;;;;;;;1751090;28;20230;-80
2023/07/25 01:45:52;;;;;;;0.00;0.00;;;;;;;;;;1745914;28;20317;-79
2023/07/25 01:46:44;;;;;;;0.00;0.00;;;;;;;;;;1747324;28;20259;-79
2023/07/25 01:47:35;;;;;;;0.00;0.00;;;;;;;;;;1747291;28;21000;-79
2023/07/25 01:48:26;;;;;;;0.00;0.00;;;;;;;;;;1747449;28;20222;-79
2023/07/25 01:49:18;;;;;;;0.00;0.00;;;;;;;;;;1746943;28;20794;-79
2023/07/25 01:50:09;;;;;;;0.00;0.00;;;;;;;;;;1747780;28;20774;-79
2023/07/25 01:51:00;;;;;;;0.00;0.00;;;;;;;;;;1745899;28;20579;-79
2023/07/25 01:51:53;;;;;;;0.00;0.00;;;;;;;;;;1747489;28;20198;-79
2023/07/25 01:52:44;;;;;;;0.00;0.00;;;;;;;;;;1747211;28;20289;-79
2023/07/25 01:53:35;;;;;;;0.00;0.00;;;;;;;;;;1747317;28;20662;-79
2023/07/25 01:54:27;;;;;;;0.00;0.00;;;;;;;;;;1747659;28;20240;-79
2023/07/25 01:55:19;;;;;;;0.00;0.00;;;;;;;;;;1746033;28;20324;-80
2023/07/25 01:56:10;;;;;;;0.00;0.00;;;;;;;;;;1753687;28;20216;-80
2023/07/25 01:57:03;;;;;;;0.00;0.00;;;;;;;;;;1754119;28;20733;-79
2023/07/25 01:57:54;;;;;;;0.00;0.00;;;;;;;;;;1753743;28;20220;-79
2023/07/25 01:58:46;;;;;;;0.00;0.00;;;;;;;;;;1754001;28;20209;-80
2023/07/25 01:59:37;;;;;;;0.00;0.00;;;;;;;;;;1753457;28;20285;-80
2023/07/25 02:00:29;;;;;;;0.00;0.00;;;;;;;;;;1751947;28;20300;-80
2023/07/25 02:01:20;;;;;;;0.00;0.00;;;;;;;;;;1753113;28;20974;-80
2023/07/25 02:02:12;;;;;;;0.00;0.00;;;;;;;;;;1754239;28;20201;-80
2023/07/25 02:03:03;;;;;;;0.00;0.00;;;;;;;;;;1752591;28;20208;-80
2023/07/25 02:03:55;;;;;;;0.00;0.00;;;;;;;;;;1754362;28;20237;-80
2023/07/25 02:04:46;;;;;;;0.00;0.00;;;;;;;;;;1753292;28;20296;-79
2023/07/25 02:05:37;;;;;;;0.00;0.00;;;;;;;;;;1750264;28;20236;-79
2023/07/25 02:06:29;;;;;;;0.00;0.00;;;;;;;;;;1749160;28;20600;-80
2023/07/25 02:07:20;;;;;;;0.00;0.00;;;;;;;;;;1749519;28;20229;-80
2023/07/25 02:08:13;;;;;;;0.00;0.00;;;;;;;;;;1748688;28;20214;-79
2023/07/25 02:09:05;;;;;;;0.00;0.00;;;;;;;;;;1749241;28;20194;-80
2023/07/25 02:09:56;;;;;;;0.00;0.00;;;;;;;;;;1748932;28;20213;-80
2023/07/25 02:10:49;;;;;;;0.00;0.00;;;;;;;;;;1750394;28;20240;-80
2023/07/25 02:11:41;;;;;;;0.00;0.00;;;;;;;;;;1755970;28;20216;-79
2023/07/25 02:12:32;;;;;;;0.00;0.00;;;;;;;;;;1754342;28;20292;-79
2023/07/25 02:13:23;;;;;;;0.00;0.00;;;;;;;;;;1755113;28;20289;-79
2023/07/25 02:14:15;;;;;;;0.00;0.00;;;;;;;;;;1754782;28;20210;-78
2023/07/25 02:15:07;;;;;;;0.00;0.00;;;;;;;;;;1755381;28;20371;-79
2023/07/25 02:15:59;;;;;;;0.00;0.00;;;;;;;;;;1751128;28;20666;-80
2023/07/25 02:16:50;;;;;;;0.00;0.00;;;;;;;;;;1755951;28;20221;-81
2023/07/25 02:17:42;;;;;;;0.00;0.00;;;;;;;;;;1754690;28;20516;-80
2023/07/25 02:18:33;;;;;;;0.00;0.00;;;;;;;;;;1755808;28;20347;-79
2023/07/25 02:19:25;;;;;;;0.00;0.00;;;;;;;;;;1754822;28;20244;-79
2023/07/25 02:20:16;;;;;;;0.00;0.00;;;;;;;;;;1753104;28;20297;-79
2023/07/25 02:21:08;;;;;;;0.00;0.00;;;;;;;;;;1752495;28;20296;-79
2023/07/25 02:22:00;;;;;;;0.00;0.00;;;;;;;;;;1753647;28;20288;-78
2023/07/25 02:22:51;;;;;;;0.00;0.00;;;;;;;;;;1752949;28;20205;-78
2023/07/25 02:23:43;;;;;;;0.00;0.00;;;;;;;;;;1753424;28;20209;-78
2023/07/25 02:24:34;;;;;;;0.00;0.00;;;;;;;;;;1752620;28;20233;-79
2023/07/25 02:25:25;;;;;;;0.00;0.00;;;;;;;;;;1751596;28;20205;-80
2023/07/25 02:26:18;;;;;;;0.00;0.00;;;;;;;;;;1749035;28;20647;-79
2023/07/25 02:27:09;;;;;;;0.00;0.00;;;;;;;;;;1749350;28;21032;-79
2023/07/25 02:28:00;;;;;;;0.00;0.00;;;;;;;;;;1748302;28;20699;-79
2023/07/25 02:28:52;;;;;;;0.00;0.00;;;;;;;;;;1748686;28;20194;-79
2023/07/25 02:29:43;;;;;;;0.00;0.00;;;;;;;;;;1748094;28;20329;-78
2023/07/25 02:30:34;;;;;;;0.00;0.00;;;;;;;;;;1742595;28;20317;-79
2023/07/25 02:31:26;;;;;;;0.00;0.00;;;;;;;;;;1754420;28;20251;-79
2023/07/25 02:32:17;;;;;;;0.00;0.00;;;;;;;;;;1754999;28;21029;-78
2023/07/25 02:33:08;;;;;;;0.00;0.00;;;;;;;;;;1754295;28;20236;-79
2023/07/25 02:34:00;;;;;;;0.00;0.00;;;;;;;;;;1754884;28;20224;-79
2023/07/25 02:34:51;;;;;;;0.00;0.00;;;;;;;;;;1753709;28;20741;-79
2023/07/25 02:35:43;;;;;;;0.00;0.00;;;;;;;;;;1753184;28;20239;-79
2023/07/25 02:36:35;;;;;;;0.00;0.00;;;;;;;;;;1753634;28;20631;-79
2023/07/25 02:37:26;;;;;;;0.00;0.00;;;;;;;;;;1756243;28;20255;-79
2023/07/25 02:38:17;;;;;;;0.00;0.00;;;;;;;;;;1754928;28;20256;-79
2023/07/25 02:39:09;;;;;;;0.00;0.00;;;;;;;;;;1754889;28;20292;-79
2023/07/25 02:40:00;;;;;;;0.00;0.00;;;;;;;;;;1754389;28;20209;-79
2023/07/25 02:40:51;;;;;;;0.00;0.00;;;;;;;;;;1750216;28;20228;-78
2023/07/25 02:41:44;;;;;;;0.00;0.00;;;;;;;;;;1752921;28;20251;-78
2023/07/25 02:42:35;;;;;;;0.00;0.00;;;;;;;;;;1751959;28;20857;-78
2023/07/25 02:43:27;;;;;;;0.00;0.00;;;;;;;;;;1753157;28;20202;-77
2023/07/25 02:44:18;;;;;;;0.00;0.00;;;;;;;;;;1751610;28;20339;-78
2023/07/25 02:45:11;;;;;;;0.00;0.00;;;;;;;;;;1753298;28;20216;-78
2023/07/25 02:46:02;;;;;;;0.00;0.00;;;;;;;;;;1751953;28;20229;-78
2023/07/25 02:46:54;;;;;;;0.00;0.00;;;;;;;;;;1754408;28;20267;-78
2023/07/25 02:47:45;;;;;;;0.00;0.00;;;;;;;;;;1753294;28;20288;-78
2023/07/25 02:48:37;;;;;;;0.00;0.00;;;;;;;;;;1754517;28;20679;-79
2023/07/25 02:49:28;;;;;;;0.00;0.00;;;;;;;;;;1753850;28;20373;-79
2023/07/25 02:50:19;;;;;;;0.00;0.00;;;;;;;;;;1749837;28;20206;-79
2023/07/25 02:51:11;;;;;;;0.00;0.00;;;;;;;;;;1747278;28;20518;-79
2023/07/25 02:52:03;;;;;;;0.00;0.00;;;;;;;;;;1748053;28;20633;-79
2023/07/25 02:52:54;;;;;;;0.00;0.00;;;;;;;;;;1747587;28;20225;-80
2023/07/25 02:53:46;;;;;;;0.00;0.00;;;;;;;;;;1748256;28;20579;-79
2023/07/25 02:54:37;;;;;;;0.00;0.00;;;;;;;;;;1748288;28;20659;-79
2023/07/25 02:55:28;;;;;;;0.00;0.00;;;;;;;;;;1746394;28;20221;-80
2023/07/25 02:56:21;;;;;;;0.00;0.00;;;;;;;;;;1747871;28;20202;-80
2023/07/25 02:57:14;;;;;;;0.00;0.00;;;;;;;;;;1748393;28;20207;-80
2023/07/25 02:58:06;;;;;;;0.00;0.00;;;;;;;;;;1747456;28;20265;-80
2023/07/25 02:58:57;;;;;;;0.00;0.00;;;;;;;;;;1747803;28;20203;-80
2023/07/25 02:59:48;;;;;;;0.00;0.00;;;;;;;;;;1746363;28;20647;-79
2023/07/25 03:00:40;;;;;;;0.00;0.00;;;;;;;;;;1743009;28;20245;-78
2023/07/25 03:01:31;;;;;;;0.00;0.00;;;;;;;;;;1746198;28;20297;-77
2023/07/25 03:02:22;;;;;;;0.00;0.00;;;;;;;;;;1746104;28;20317;-78
2023/07/25 03:03:14;;;;;;;0.00;0.00;;;;;;;;;;1746050;28;20293;-79
2023/07/25 03:04:05;;;;;;;0.00;0.00;;;;;;;;;;1746345;28;20237;-78
2023/07/25 03:04:56;;;;;;;0.10;0.10;;;;;;;;;;1746274;28;20268;-79
2023/07/25 03:05:48;;;;;;;0.00;0.00;;;;;;;;;;1744930;28;20229;-79
2023/07/25 03:06:39;;;;;;;0.00;0.00;;;;;;;;;;1746685;28;20317;-79
2023/07/25 03:07:30;;;;;;;0.00;0.00;;;;;;;;;;1746481;28;20198;-78
2023/07/25 03:08:22;;;;;;;0.00;0.00;;;;;;;;;;1746758;28;20637;-79
2023/07/25 03:09:13;;;;;;;0.00;0.00;;;;;;;;;;1745957;28;20361;-78
2023/07/25 03:10:05;;;;;;;0.00;0.00;;;;;;;;;;1746624;28;20206;-78
2023/07/25 03:10:57;;;;;;;0.00;0.00;;;;;;;;;;1744002;28;20322;-78
2023/07/25 03:11:48;;;;;;;0.00;0.00;;;;;;;;;;1746770;28;20270;-79
2023/07/25 03:12:40;;;;;;;0.00;0.00;;;;;;;;;;1746406;28;20194;-79
2023/07/25 03:13:32;;;;;;;0.00;0.00;;;;;;;;;;1743900;28;20206;-79
2023/07/25 03:14:23;;;;;;;0.00;0.00;;;;;;;;;;1746113;28;20277;-79
2023/07/25 03:15:14;;;;;;;0.00;0.00;;;;;;;;;;1744631;28;20202;-80
2023/07/25 03:16:06;;;;;;;0.00;0.00;;;;;;;;;;1745215;28;20233;-79
2023/07/25 03:16:58;;;;;;;0.00;0.00;;;;;;;;;;1746314;28;20692;-78
2023/07/25 03:17:49;;;;;;;0.00;0.00;;;;;;;;;;1745904;28;20621;-78
2023/07/25 03:18:41;;;;;;;0.00;0.00;;;;;;;;;;1746267;28;20198;-79
2023/07/25 03:19:32;;;;;;;0.00;0.00;;;;;;;;;;1743550;28;20332;-78
2023/07/25 03:20:23;;;;;;;0.00;0.00;;;;;;;;;;1744499;28;20278;-79
2023/07/25 03:21:15;;;;;;;0.00;0.00;;;;;;;;;;1745929;28;20194;-79
2023/07/25 03:22:06;;;;;;;0.00;0.00;;;;;;;;;;1745990;28;20321;-79
2023/07/25 03:22:58;;;;;;;0.00;0.00;;;;;;;;;;1745840;28;20275;-79
2023/07/25 03:23:49;;;;;;;0.00;0.00;;;;;;;;;;1746356;28;20646;-79
2023/07/25 03:24:40;;;;;;;0.00;0.00;;;;;;;;;;1745953;28;20198;-79
2023/07/25 03:25:32;;;;;;;0.00;0.00;;;;;;;;;;1745199;28;20309;-81
2023/07/25 03:26:23;;;;;;;0.00;0.00;;;;;;;;;;1746939;28;20332;-81
2023/07/25 03:27:15;;;;;;;0.00;0.00;;;;;;;;;;1744571;28;20396;-81
2023/07/25 03:28:08;;;;;;;0.00;0.00;;;;;;;;;;1746522;28;20194;-81
2023/07/25 03:28:59;;;;;;;0.00;0.00;;;;;;;;;;1747099;28;20741;-81
2023/07/25 03:29:50;;;;;;;0.00;0.00;;;;;;;;;;1746432;28;20194;-81
2023/07/25 03:30:42;;;;;;;0.00;0.00;;;;;;;;;;1745026;28;20492;-80
2023/07/25 03:31:33;;;;;;;0.00;0.00;;;;;;;;;;1745759;28;20248;-79
2023/07/25 03:32:24;;;;;;;0.00;0.00;;;;;;;;;;1745996;28;20205;-79
2023/07/25 03:33:16;;;;;;;0.00;0.00;;;;;;;;;;1745646;28;20447;-78
2023/07/25 03:34:08;;;;;;;0.00;0.00;;;;;;;;;;1745664;28;20627;-79
2023/07/25 03:34:59;;;;;;;0.00;0.00;;;;;;;;;;1745937;28;20593;-79
2023/07/25 03:35:51;;;;;;;0.00;0.00;;;;;;;;;;1744821;28;20624;-79
2023/07/25 03:36:43;;;;;;;0.00;0.00;;;;;;;;;;1746212;28;20229;-78
2023/07/25 03:37:34;;;;;;;0.00;0.00;;;;;;;;;;1746307;28;20722;-79
2023/07/25 03:38:25;;;;;;;0.00;0.00;;;;;;;;;;1746396;28;20210;-79
2023/07/25 03:39:17;;;;;;;0.00;0.00;;;;;;;;;;1746012;28;20651;-79
2023/07/25 03:40:08;;;;;;;0.00;0.00;;;;;;;;;;1746917;28;20703;-79
2023/07/25 03:41:00;;;;;;;0.00;0.00;;;;;;;;;;1743953;28;20230;-78
2023/07/25 03:41:51;;;;;;;0.00;0.00;;;;;;;;;;1746661;28;20632;-79
2023/07/25 03:42:42;;;;;;;0.00;0.00;;;;;;;;;;1745909;28;20201;-79
2023/07/25 03:43:36;;;;;;;0.00;0.00;;;;;;;;;;1746720;28;20229;-79
2023/07/25 03:44:27;;;;;;;0.00;0.00;;;;;;;;;;1746380;28;20282;-79
2023/07/25 03:45:18;;;;;;;0.00;0.00;;;;;;;;;;1744775;28;20265;-78
2023/07/25 03:46:10;;;;;;;0.00;0.00;;;;;;;;;;1745848;28;20274;-78
2023/07/25 03:47:01;;;;;;;0.00;0.00;;;;;;;;;;1745920;28;20367;-78
2023/07/25 03:47:53;;;;;;;0.00;0.00;;;;;;;;;;1745552;28;20295;-78
2023/07/25 03:48:44;;;;;;;0.00;0.00;;;;;;;;;;1745999;28;20324;-78
2023/07/25 03:49:36;;;;;;;0.00;0.00;;;;;;;;;;1745467;28;20206;-79
2023/07/25 03:50:27;;;;;;;0.00;0.00;;;;;;;;;;1744682;28;20241;-79
2023/07/25 03:51:18;;;;;;;0.00;0.00;;;;;;;;;;1746142;28;20203;-79
2023/07/25 03:52:10;;;;;;;0.00;0.00;;;;;;;;;;1746803;28;20202;-79
2023/07/25 03:53:02;;;;;;;0.00;0.00;;;;;;;;;;1746148;28;20289;-79
2023/07/25 03:53:53;;;;;;;0.00;0.00;;;;;;;;;;1746397;28;20289;-79
2023/07/25 03:54:45;;;;;;;0.00;0.00;;;;;;;;;;1745984;28;20202;-79
2023/07/25 03:55:36;;;;;;;0.00;0.00;;;;;;;;;;1745069;28;20242;-79
2023/07/25 03:56:28;;;;;;;0.00;0.00;;;;;;;;;;1745427;28;20735;-79
2023/07/25 03:57:19;;;;;;;0.00;0.00;;;;;;;;;;1745974;28;20706;-79
2023/07/25 03:58:11;;;;;;;0.00;0.00;;;;;;;;;;1745349;28;20289;-79
2023/07/25 03:59:04;;;;;;;0.00;0.00;;;;;;;;;;1745840;28;20768;-79
2023/07/25 03:59:56;;;;;;;0.00;0.00;;;;;;;;;;1745489;28;20248;-79
2023/07/25 04:00:47;;;;;;;0.00;0.00;;;;;;;;;;1740852;28;20588;-78
2023/07/25 04:01:38;;;;;;;0.00;0.00;;;;;;;;;;1745407;28;20244;-78
2023/07/25 04:02:30;;;;;;;0.00;0.00;;;;;;;;;;1745423;28;20275;-78
2023/07/25 04:03:21;;;;;;;0.00;0.00;;;;;;;;;;1746060;28;20568;-79
2023/07/25 04:04:13;;;;;;;0.00;0.00;;;;;;;;;;1745611;28;20210;-79
2023/07/25 04:05:04;;;;;;;0.00;0.00;;;;;;;;;;1746723;28;20244;-79
2023/07/25 04:05:56;;;;;;;0.00;0.00;;;;;;;;;;1749588;28;20234;-79
2023/07/25 04:06:47;;;;;;;0.00;0.00;;;;;;;;;;1749378;28;20324;-79
2023/07/25 04:07:39;;;;;;;0.00;0.00;;;;;;;;;;1752599;28;20578;-78
2023/07/25 04:08:30;;;;;;;0.00;0.00;;;;;;;;;;1753127;28;20296;-79
2023/07/25 04:09:22;;;;;;;0.00;0.00;;;;;;;;;;1751764;28;20296;-79
2023/07/25 04:10:13;;;;;;;0.00;0.00;;;;;;;;;;1750922;28;20241;-78
2023/07/25 04:11:04;;;;;;;0.00;0.00;;;;;;;;;;1752440;28;20614;-78
2023/07/25 04:11:56;;;;;;;0.00;0.00;;;;;;;;;;1752535;28;20205;-79
2023/07/25 04:12:47;;;;;;;0.00;0.00;;;;;;;;;;1751291;28;20316;-79
2023/07/25 04:13:39;;;;;;;0.00;0.00;;;;;;;;;;1753010;28;20320;-79
2023/07/25 04:14:32;;;;;;;0.00;0.00;;;;;;;;;;1751386;28;20789;-79
2023/07/25 04:15:23;;;;;;;0.00;0.00;;;;;;;;;;1751708;28;20253;-78
2023/07/25 04:16:14;;;;;;;0.00;0.00;;;;;;;;;;1751513;28;20237;-78
2023/07/25 04:17:06;;;;;;;0.00;0.00;;;;;;;;;;1753060;28;20198;-78
2023/07/25 04:17:57;;;;;;;0.00;0.00;;;;;;;;;;1752311;28;20489;-79
2023/07/25 04:18:48;;;;;;;0.00;0.00;;;;;;;;;;1753162;28;20706;-79
2023/07/25 04:19:40;;;;;;;0.00;0.00;;;;;;;;;;1752826;28;20214;-79
2023/07/25 04:20:31;;;;;;;0.00;0.00;;;;;;;;;;1752040;28;20244;-79
2023/07/25 04:21:22;;;;;;;0.00;0.00;;;;;;;;;;1752848;28;20544;-79
2023/07/25 04:22:14;;;;;;;0.00;0.00;;;;;;;;;;1754740;28;20201;-80
2023/07/25 04:23:05;;;;;;;0.00;0.00;;;;;;;;;;1753033;28;20572;-79
2023/07/25 04:23:57;;;;;;;0.00;0.00;;;;;;;;;;1754595;28;20280;-79
2023/07/25 04:24:49;;;;;;;0.00;0.00;;;;;;;;;;1753843;28;20992;-81
2023/07/25 04:25:40;;;;;;;0.00;0.00;;;;;;;;;;1752207;28;20269;-80
2023/07/25 04:26:31;;;;;;;0.00;0.00;;;;;;;;;;1752499;28;20293;-79
2023/07/25 04:27:23;;;;;;;0.00;0.00;;;;;;;;;;1753318;28;20205;-79
2023/07/25 04:28:14;;;;;;;0.00;0.00;;;;;;;;;;1752115;28;20312;-78
2023/07/25 04:29:06;;;;;;;0.00;0.00;;;;;;;;;;1752674;28;20473;-78
2023/07/25 04:29:58;;;;;;;0.00;0.00;;;;;;;;;;1751505;28;20338;-78
2023/07/25 04:30:49;;;;;;;0.00;0.00;;;;;;;;;;1751032;28;20278;-78
2023/07/25 04:31:41;;;;;;;0.00;0.00;;;;;;;;;;1753274;28;20563;-78
2023/07/25 04:32:32;;;;;;;0.00;0.00;;;;;;;;;;1753218;28;20281;-78
2023/07/25 04:33:23;;;;;;;0.00;0.00;;;;;;;;;;1753271;28;20208;-78
2023/07/25 04:34:15;;;;;;;0.00;0.00;;;;;;;;;;1753190;28;20639;-78
2023/07/25 04:35:07;;;;;;;0.00;0.00;;;;;;;;;;1753581;28;20540;-79
2023/07/25 04:35:58;;;;;;;0.00;0.00;;;;;;;;;;1750731;28;20236;-78
2023/07/25 04:36:50;;;;;;;0.00;0.00;;;;;;;;;;1752748;28;20202;-78
2023/07/25 04:37:41;;;;;;;0.00;0.00;;;;;;;;;;1752454;28;20615;-78
2023/07/25 04:38:32;;;;;;;0.00;0.00;;;;;;;;;;1752883;28;20283;-78
2023/07/25 04:39:24;;;;;;;0.00;0.00;;;;;;;;;;1752371;28;20205;-78
2023/07/25 04:40:15;;;;;;;0.00;0.00;;;;;;;;;;1750552;28;20336;-79
2023/07/25 04:41:06;;;;;;;0.00;0.00;;;;;;;;;;1746053;28;21179;-79
2023/07/25 04:41:58;;;;;;;0.00;0.00;;;;;;;;;;1746246;28;20202;-79
2023/07/25 04:42:49;;;;;;;0.00;0.00;;;;;;;;;;1746133;28;20603;-79
2023/07/25 04:43:41;;;;;;;0.00;0.00;;;;;;;;;;1746830;28;20202;-79
2023/07/25 04:44:32;;;;;;;0.00;0.00;;;;;;;;;;1746144;28;20260;-79
2023/07/25 04:45:25;;;;;;;0.00;0.00;;;;;;;;;;1746420;28;20202;-78
2023/07/25 04:46:17;;;;;;;0.00;0.00;;;;;;;;;;1751604;28;20252;-78
2023/07/25 04:47:08;;;;;;;0.00;0.00;;;;;;;;;;1753479;28;20217;-79
2023/07/25 04:47:59;;;;;;;0.00;0.00;;;;;;;;;;1752986;28;20212;-78
2023/07/25 04:48:51;;;;;;;0.00;0.00;;;;;;;;;;1753298;28;20632;-79
2023/07/25 04:49:42;;;;;;;0.00;0.00;;;;;;;;;;1752936;28;20718;-79
2023/07/25 04:50:33;;;;;;;0.00;0.00;;;;;;;;;;1751417;28;20233;-78
2023/07/25 04:51:25;;;;;;;0.00;0.00;;;;;;;;;;1752505;28;20197;-78
2023/07/25 04:52:16;;;;;;;0.00;0.00;;;;;;;;;;1753060;28;20244;-78
2023/07/25 04:53:07;;;;;;;0.00;0.00;;;;;;;;;;1752128;28;20300;-78
2023/07/25 04:53:59;;;;;;;0.00;0.00;;;;;;;;;;1753054;28;20582;-79
2023/07/25 04:54:55;;;;;;;0.00;0.00;;;;;;;;;;1752438;28;20296;-78
2023/07/25 04:55:46;;;;;;;0.00;0.00;;;;;;;;;;1751607;28;20229;-78
2023/07/25 04:56:40;;;;;;;0.00;0.00;;;;;;;;;;1751877;28;20205;-78
2023/07/25 04:57:31;;;;;;;0.00;0.00;;;;;;;;;;1753043;28;20229;-78
2023/07/25 04:58:22;;;;;;;0.00;0.00;;;;;;;;;;1752207;28;20227;-78
2023/07/25 04:59:14;;;;;;;0.00;0.00;;;;;;;;;;1752388;28;20588;-78
2023/07/25 05:00:06;;;;;;;0.00;0.00;;;;;;;;;;1753292;28;20252;-78
2023/07/25 05:00:59;;;;;;;0.00;0.00;;;;;;;;;;1739386;28;20285;-79
2023/07/25 05:01:51;;;;;;;0.00;0.00;;;;;;;;;;1741357;28;20666;-79
2023/07/25 05:02:42;;;;;;;0.00;0.00;;;;;;;;;;1746177;28;20306;-79
2023/07/25 05:03:33;;;;;;;0.00;0.00;;;;;;;;;;1746097;28;20199;-79
2023/07/25 05:04:25;;;;;;;0.00;0.00;;;;;;;;;;1745842;28;20217;-79
2023/07/25 05:05:16;;;;;;;0.00;0.00;;;;;;;;;;1744720;28;20698;-79
2023/07/25 05:06:08;;;;;;;0.00;0.00;;;;;;;;;;1745388;28;20214;-79
2023/07/25 05:06:59;;;;;;;0.00;0.00;;;;;;;;;;1745663;28;20678;-78
2023/07/25 05:07:51;;;;;;;0.00;0.00;;;;;;;;;;1745716;28;20224;-78
2023/07/25 05:08:43;;;;;;;0.00;0.00;;;;;;;;;;1745969;28;20723;-78
2023/07/25 05:09:34;;;;;;;0.00;0.00;;;;;;;;;;1745961;28;20331;-78